sensor_id;sensor_type;location;lat;lon;timestamp;pressure;altitude;pressure_sealevel;temperature;humidity
4415;BME280;2220;42.670;23.398;2023-02-04T00:00:16;93826.47;;;2.01;100.00
4415;BME280;2220;42.670;23.398;2023-02-04T00:02:42;93870.38;;;2.11;100.00
4415;BME280;2220;42.670;23.398;2023-02-04T00:05:09;93868.13;;;2.14;100.00
4415;BME280;2220;42.670;23.398;2023-02-04T00:07:34;93874.81;;;1.92;100.00
4415;BME280;2220;42.670;23.398;2023-02-04T00:10:00;93925.41;;;2.03;100.00
4415;BME280;2220;42.670;23.398;2023-02-04T00:12:26;93922.72;;;1.98;100.00
4415;BME280;2220;42.670;23.398;2023-02-04T00:14:51;93915.78;;;1.87;100.00
4415;BME280;2220;42.670;23.398;2023-02-04T00:17:16;93920.97;;;1.57;100.00
4415;BME280;2220;42.670;23.398;2023-02-04T00:19:42;93938.94;;;1.57;100.00
4415;BME280;2220;42.670;23.398;2023-02-04T00:22:08;93948.16;;;1.16;100.00
4415;BME280;2220;42.670;23.398;2023-02-04T00:24:35;93955.09;;;1.46;100.00
4415;BME280;2220;42.670;23.398;2023-02-04T00:27:01;93976.97;;;1.48;100.00
4415;BME280;2220;42.670;23.398;2023-02-04T00:29:27;93981.09;;;1.49;100.00
4415;BME280;2220;42.670;23.398;2023-02-04T00:31:52;93984.66;;;1.48;100.00
4415;BME280;2220;42.670;23.398;2023-02-04T00:34:18;93959.31;;;1.40;100.00
4415;BME280;2220;42.670;23.398;2023-02-04T00:36:43;93979.91;;;1.33;100.00
4415;BME280;2220;42.670;23.398;2023-02-04T00:39:09;93986.69;;;1.46;100.00
4415;BME280;2220;42.670;23.398;2023-02-04T00:41:34;93999.03;;;1.37;100.00
4415;BME280;2220;42.670;23.398;2023-02-04T00:44:00;94004.50;;;1.41;100.00
4415;BME280;2220;42.670;23.398;2023-02-04T00:46:25;93991.97;;;1.63;100.00
4415;BME280;2220;42.670;23.398;2023-02-04T00:48:50;93980.94;;;1.74;100.00
4415;BME280;2220;42.670;23.398;2023-02-04T00:51:16;93982.34;;;1.88;100.00
4415;BME280;2220;42.670;23.398;2023-02-04T00:53:41;93968.81;;;1.81;100.00
4415;BME280;2220;42.670;23.398;2023-02-04T00:56:07;93967.47;;;1.79;100.00
4415;BME280;2220;42.670;23.398;2023-02-04T00:58:32;93954.31;;;1.87;100.00
4415;BME280;2220;42.670;23.398;2023-02-04T01:00:58;93955.63;;;1.78;100.00
4415;BME280;2220;42.670;23.398;2023-02-04T01:03:23;93937.91;;;1.88;100.00
4415;BME280;2220;42.670;23.398;2023-02-04T01:05:49;93944.28;;;1.97;100.00
4415;BME280;2220;42.670;23.398;2023-02-04T01:08:14;93932.53;;;1.78;100.00
4415;BME280;2220;42.670;23.398;2023-02-04T01:10:40;93920.06;;;1.93;100.00
4415;BME280;2220;42.670;23.398;2023-02-04T01:13:06;93915.44;;;1.72;100.00
4415;BME280;2220;42.670;23.398;2023-02-04T01:15:35;93905.97;;;1.95;100.00
4415;BME280;2220;42.670;23.398;2023-02-04T01:18:00;93900.63;;;1.97;100.00
4415;BME280;2220;42.670;23.398;2023-02-04T01:20:26;93897.13;;;1.91;100.00
4415;BME280;2220;42.670;23.398;2023-02-04T01:22:51;93899.72;;;2.03;100.00
4415;BME280;2220;42.670;23.398;2023-02-04T01:25:17;93888.31;;;1.99;100.00
4415;BME280;2220;42.670;23.398;2023-02-04T01:27:43;93880.09;;;2.09;100.00
4415;BME280;2220;42.670;23.398;2023-02-04T01:30:10;93882.19;;;2.12;100.00
4415;BME280;2220;42.670;23.398;2023-02-04T01:32:37;93861.09;;;2.10;100.00
4415;BME280;2220;42.670;23.398;2023-02-04T01:35:03;93855.03;;;2.16;100.00
4415;BME280;2220;42.670;23.398;2023-02-04T01:37:28;93846.34;;;2.05;100.00
4415;BME280;2220;42.670;23.398;2023-02-04T01:39:54;93857.19;;;2.19;100.00
4415;BME280;2220;42.670;23.398;2023-02-04T01:42:19;93839.31;;;2.12;100.00
4415;BME280;2220;42.670;23.398;2023-02-04T01:44:45;93837.19;;;1.86;100.00
4415;BME280;2220;42.670;23.398;2023-02-04T01:47:11;93838.22;;;1.85;100.00
4415;BME280;2220;42.670;23.398;2023-02-04T01:49:36;93824.13;;;1.99;100.00
4415;BME280;2220;42.670;23.398;2023-02-04T01:52:02;93832.84;;;1.98;100.00
4415;BME280;2220;42.670;23.398;2023-02-04T01:54:28;93828.72;;;2.09;100.00
4415;BME280;2220;42.670;23.398;2023-02-04T01:56:54;93825.59;;;1.95;100.00
4415;BME280;2220;42.670;23.398;2023-02-04T01:59:20;93826.91;;;2.09;100.00
4415;BME280;2220;42.670;23.398;2023-02-04T02:01:50;93826.00;;;2.27;100.00
4415;BME280;2220;42.670;23.398;2023-02-04T02:04:18;93810.09;;;2.42;100.00
4415;BME280;2220;42.670;23.398;2023-02-04T02:06:48;93802.09;;;2.27;100.00
4415;BME280;2220;42.670;23.398;2023-02-04T02:09:16;93797.72;;;2.27;100.00
4415;BME280;2220;42.670;23.398;2023-02-04T02:11:42;93810.47;;;2.34;100.00
4415;BME280;2220;42.670;23.398;2023-02-04T02:14:08;93789.59;;;2.18;100.00
4415;BME280;2220;42.670;23.398;2023-02-04T02:16:33;93800.97;;;2.34;100.00
4415;BME280;2220;42.670;23.398;2023-02-04T02:18:59;93787.81;;;2.07;100.00
4415;BME280;2220;42.670;23.398;2023-02-04T02:21:38;93784.38;;;2.02;100.00
4415;BME280;2220;42.670;23.398;2023-02-04T02:24:31;93777.97;;;2.16;100.00
4415;BME280;2220;42.670;23.398;2023-02-04T02:27:00;93767.56;;;2.22;100.00
4415;BME280;2220;42.670;23.398;2023-02-04T02:29:27;93771.63;;;2.07;100.00
4415;BME280;2220;42.670;23.398;2023-02-04T02:31:53;93747.22;;;1.81;100.00
4415;BME280;2220;42.670;23.398;2023-02-04T02:34:22;93746.88;;;1.89;100.00
4415;BME280;2220;42.670;23.398;2023-02-04T02:36:47;93736.13;;;2.04;100.00
4415;BME280;2220;42.670;23.398;2023-02-04T02:39:13;93719.59;;;2.11;100.00
4415;BME280;2220;42.670;23.398;2023-02-04T02:41:39;93704.47;;;2.15;100.00
4415;BME280;2220;42.670;23.398;2023-02-04T02:44:04;93698.56;;;2.14;100.00
4415;BME280;2220;42.670;23.398;2023-02-04T02:46:30;93687.84;;;2.17;100.00
4415;BME280;2220;42.670;23.398;2023-02-04T02:48:55;93683.50;;;2.18;100.00
4415;BME280;2220;42.670;23.398;2023-02-04T02:51:21;93672.84;;;2.26;100.00
4415;BME280;2220;42.670;23.398;2023-02-04T02:53:48;93674.66;;;2.14;100.00
4415;BME280;2220;42.670;23.398;2023-02-04T02:56:14;93684.72;;;2.15;100.00
4415;BME280;2220;42.670;23.398;2023-02-04T02:58:40;93669.94;;;2.22;100.00
4415;BME280;2220;42.670;23.398;2023-02-04T03:01:07;93674.13;;;2.12;100.00
4415;BME280;2220;42.670;23.398;2023-02-04T03:03:36;93671.44;;;2.07;100.00
4415;BME280;2220;42.670;23.398;2023-02-04T03:06:12;93678.56;;;2.16;100.00
4415;BME280;2220;42.670;23.398;2023-02-04T03:08:38;93679.03;;;2.13;100.00
4415;BME280;2220;42.670;23.398;2023-02-04T03:11:05;93675.53;;;2.19;100.00
4415;BME280;2220;42.670;23.398;2023-02-04T03:13:30;93667.06;;;2.19;100.00
4415;BME280;2220;42.670;23.398;2023-02-04T03:15:58;93683.91;;;2.27;100.00
4415;BME280;2220;42.670;23.398;2023-02-04T03:18:24;93681.00;;;2.23;100.00
4415;BME280;2220;42.670;23.398;2023-02-04T03:20:50;93683.56;;;2.23;100.00
4415;BME280;2220;42.670;23.398;2023-02-04T03:23:17;93673.78;;;2.37;100.00
4415;BME280;2220;42.670;23.398;2023-02-04T03:25:43;93666.72;;;2.44;100.00
4415;BME280;2220;42.670;23.398;2023-02-04T03:28:08;93646.81;;;2.22;100.00
4415;BME280;2220;42.670;23.398;2023-02-04T03:30:34;93646.22;;;2.04;100.00
4415;BME280;2220;42.670;23.398;2023-02-04T03:32:59;93649.72;;;1.98;100.00
4415;BME280;2220;42.670;23.398;2023-02-04T03:35:25;93650.94;;;1.95;100.00
4415;BME280;2220;42.670;23.398;2023-02-04T03:37:50;93657.88;;;1.94;100.00
4415;BME280;2220;42.670;23.398;2023-02-04T03:40:16;93663.09;;;2.00;100.00
4415;BME280;2220;42.670;23.398;2023-02-04T03:42:41;93678.34;;;2.18;100.00
4415;BME280;2220;42.670;23.398;2023-02-04T03:45:07;93655.75;;;1.91;100.00
4415;BME280;2220;42.670;23.398;2023-02-04T03:47:32;93669.06;;;1.88;100.00
4415;BME280;2220;42.670;23.398;2023-02-04T03:49:58;93668.50;;;2.15;100.00
4415;BME280;2220;42.670;23.398;2023-02-04T03:52:23;93650.66;;;2.08;100.00
4415;BME280;2220;42.670;23.398;2023-02-04T03:54:49;93648.72;;;2.27;100.00
4415;BME280;2220;42.670;23.398;2023-02-04T03:57:14;93647.97;;;2.43;100.00
4415;BME280;2220;42.670;23.398;2023-02-04T03:59:42;93626.97;;;2.18;100.00
4415;BME280;2220;42.670;23.398;2023-02-04T04:02:08;93618.44;;;2.63;100.00
4415;BME280;2220;42.670;23.398;2023-02-04T04:04:34;93602.19;;;2.74;100.00
4415;BME280;2220;42.670;23.398;2023-02-04T04:06:59;93589.88;;;2.76;100.00
4415;BME280;2220;42.670;23.398;2023-02-04T04:09:25;93563.78;;;2.50;100.00
4415;BME280;2220;42.670;23.398;2023-02-04T04:11:50;93559.16;;;2.69;100.00
4415;BME280;2220;42.670;23.398;2023-02-04T04:14:16;93545.53;;;2.69;100.00
4415;BME280;2220;42.670;23.398;2023-02-04T04:16:41;93522.81;;;2.27;100.00
4415;BME280;2220;42.670;23.398;2023-02-04T04:19:06;93537.44;;;2.10;100.00
4415;BME280;2220;42.670;23.398;2023-02-04T04:21:32;93545.81;;;1.88;100.00
4415;BME280;2220;42.670;23.398;2023-02-04T04:23:57;93567.66;;;1.91;100.00
4415;BME280;2220;42.670;23.398;2023-02-04T04:26:23;93573.81;;;1.90;100.00
4415;BME280;2220;42.670;23.398;2023-02-04T04:28:48;93585.63;;;2.19;100.00
4415;BME280;2220;42.670;23.398;2023-02-04T04:31:14;93582.28;;;1.90;100.00
4415;BME280;2220;42.670;23.398;2023-02-04T04:33:39;93596.41;;;2.05;100.00
4415;BME280;2220;42.670;23.398;2023-02-04T04:36:06;93597.22;;;2.22;100.00
4415;BME280;2220;42.670;23.398;2023-02-04T04:38:31;93603.94;;;2.40;100.00
4415;BME280;2220;42.670;23.398;2023-02-04T04:40:57;93597.69;;;2.19;100.00
4415;BME280;2220;42.670;23.398;2023-02-04T04:43:22;93616.38;;;2.31;100.00
4415;BME280;2220;42.670;23.398;2023-02-04T04:45:48;93601.84;;;2.53;100.00
4415;BME280;2220;42.670;23.398;2023-02-04T04:48:13;93625.78;;;2.54;100.00
4415;BME280;2220;42.670;23.398;2023-02-04T04:50:39;93608.88;;;2.41;100.00
4415;BME280;2220;42.670;23.398;2023-02-04T04:53:04;93617.25;;;2.37;100.00
4415;BME280;2220;42.670;23.398;2023-02-04T04:55:30;93616.81;;;2.57;100.00
4415;BME280;2220;42.670;23.398;2023-02-04T04:57:56;93604.13;;;2.67;100.00
4415;BME280;2220;42.670;23.398;2023-02-04T05:00:22;93603.25;;;2.61;100.00
4415;BME280;2220;42.670;23.398;2023-02-04T05:02:48;93609.28;;;2.67;100.00
4415;BME280;2220;42.670;23.398;2023-02-04T05:05:13;93611.75;;;2.62;100.00
4415;BME280;2220;42.670;23.398;2023-02-04T05:07:39;93622.91;;;2.67;100.00
4415;BME280;2220;42.670;23.398;2023-02-04T05:10:05;93630.38;;;2.69;100.00
4415;BME280;2220;42.670;23.398;2023-02-04T05:12:31;93637.94;;;2.59;100.00
4415;BME280;2220;42.670;23.398;2023-02-04T05:14:56;93637.00;;;2.19;100.00
4415;BME280;2220;42.670;23.398;2023-02-04T05:17:22;93689.81;;;2.27;100.00
4415;BME280;2220;42.670;23.398;2023-02-04T05:19:47;93699.22;;;2.50;100.00
4415;BME280;2220;42.670;23.398;2023-02-04T05:22:12;93702.72;;;2.44;100.00
4415;BME280;2220;42.670;23.398;2023-02-04T05:24:38;93709.78;;;2.37;100.00
4415;BME280;2220;42.670;23.398;2023-02-04T05:27:03;93724.06;;;1.92;100.00
4415;BME280;2220;42.670;23.398;2023-02-04T05:29:29;93746.63;;;2.02;100.00
4415;BME280;2220;42.670;23.398;2023-02-04T05:31:54;93762.59;;;2.04;100.00
4415;BME280;2220;42.670;23.398;2023-02-04T05:34:20;93790.94;;;2.21;100.00
4415;BME280;2220;42.670;23.398;2023-02-04T05:36:45;93785.66;;;2.28;100.00
4415;BME280;2220;42.670;23.398;2023-02-04T05:39:10;93781.28;;;2.68;100.00
4415;BME280;2220;42.670;23.398;2023-02-04T05:41:36;93828.31;;;3.09;100.00
4415;BME280;2220;42.670;23.398;2023-02-04T05:44:01;93738.78;;;3.45;100.00
4415;BME280;2220;42.670;23.398;2023-02-04T05:46:27;93731.44;;;3.70;100.00
4415;BME280;2220;42.670;23.398;2023-02-04T05:48:52;93706.06;;;3.79;100.00
4415;BME280;2220;42.670;23.398;2023-02-04T05:51:18;93644.78;;;3.81;100.00
4415;BME280;2220;42.670;23.398;2023-02-04T05:53:43;93616.44;;;3.81;100.00
4415;BME280;2220;42.670;23.398;2023-02-04T05:56:13;93576.69;;;3.72;100.00
4415;BME280;2220;42.670;23.398;2023-02-04T05:58:52;93552.63;;;3.61;100.00
4415;BME280;2220;42.670;23.398;2023-02-04T06:01:20;93540.56;;;3.67;100.00
4415;BME280;2220;42.670;23.398;2023-02-04T06:03:46;93530.34;;;3.72;100.00
4415;BME280;2220;42.670;23.398;2023-02-04T06:06:17;93522.13;;;3.75;100.00
4415;BME280;2220;42.670;23.398;2023-02-04T06:08:45;93517.06;;;3.85;100.00
4415;BME280;2220;42.670;23.398;2023-02-04T06:11:10;93501.31;;;3.81;100.00
4415;BME280;2220;42.670;23.398;2023-02-04T06:13:35;93482.47;;;3.76;100.00
4415;BME280;2220;42.670;23.398;2023-02-04T06:16:01;93483.44;;;3.70;100.00
4415;BME280;2220;42.670;23.398;2023-02-04T06:18:26;93451.03;;;3.74;100.00
4415;BME280;2220;42.670;23.398;2023-02-04T06:20:52;93468.75;;;3.97;100.00
4415;BME280;2220;42.670;23.398;2023-02-04T06:23:17;93464.53;;;3.86;100.00
4415;BME280;2220;42.670;23.398;2023-02-04T06:25:42;93447.03;;;3.88;100.00
4415;BME280;2220;42.670;23.398;2023-02-04T06:28:08;93434.94;;;3.88;100.00
4415;BME280;2220;42.670;23.398;2023-02-04T06:30:33;93460.44;;;3.90;100.00
4415;BME280;2220;42.670;23.398;2023-02-04T06:32:59;93436.94;;;3.81;100.00
4415;BME280;2220;42.670;23.398;2023-02-04T06:35:24;93443.38;;;3.84;100.00
4415;BME280;2220;42.670;23.398;2023-02-04T06:37:50;93477.50;;;3.96;100.00
4415;BME280;2220;42.670;23.398;2023-02-04T06:40:15;93441.81;;;4.10;100.00
4415;BME280;2220;42.670;23.398;2023-02-04T06:42:41;93434.31;;;4.08;100.00
4415;BME280;2220;42.670;23.398;2023-02-04T06:45:07;93432.28;;;4.15;100.00
4415;BME280;2220;42.670;23.398;2023-02-04T06:47:32;93432.50;;;4.09;100.00
4415;BME280;2220;42.670;23.398;2023-02-04T06:50:00;93437.69;;;4.14;100.00
4415;BME280;2220;42.670;23.398;2023-02-04T06:52:26;93435.06;;;4.09;100.00
4415;BME280;2220;42.670;23.398;2023-02-04T06:54:51;93419.66;;;4.14;100.00
4415;BME280;2220;42.670;23.398;2023-02-04T06:57:17;93447.69;;;4.05;100.00
4415;BME280;2220;42.670;23.398;2023-02-04T07:00:03;93435.91;;;4.14;100.00
4415;BME280;2220;42.670;23.398;2023-02-04T07:02:28;93438.72;;;4.13;100.00
4415;BME280;2220;42.670;23.398;2023-02-04T07:04:53;93428.69;;;4.11;100.00
4415;BME280;2220;42.670;23.398;2023-02-04T07:07:19;93451.44;;;4.25;100.00
4415;BME280;2220;42.670;23.398;2023-02-04T07:09:44;93450.50;;;4.36;100.00
4415;BME280;2220;42.670;23.398;2023-02-04T07:12:10;93460.28;;;4.34;100.00
4415;BME280;2220;42.670;23.398;2023-02-04T07:14:35;93442.81;;;4.46;100.00
4415;BME280;2220;42.670;23.398;2023-02-04T07:17:00;93442.28;;;4.44;100.00
4415;BME280;2220;42.670;23.398;2023-02-04T07:19:26;93447.75;;;4.53;100.00
4415;BME280;2220;42.670;23.398;2023-02-04T07:21:51;93466.63;;;4.63;100.00
4415;BME280;2220;42.670;23.398;2023-02-04T07:24:21;93453.56;;;4.75;100.00
4415;BME280;2220;42.670;23.398;2023-02-04T07:26:46;93465.75;;;4.90;100.00
4415;BME280;2220;42.670;23.398;2023-02-04T07:29:12;93479.06;;;4.71;100.00
4415;BME280;2220;42.670;23.398;2023-02-04T07:31:37;93473.97;;;4.82;100.00
4415;BME280;2220;42.670;23.398;2023-02-04T07:34:03;93482.47;;;4.77;100.00
4415;BME280;2220;42.670;23.398;2023-02-04T07:36:28;93477.63;;;4.91;100.00
4415;BME280;2220;42.670;23.398;2023-02-04T07:38:54;93490.16;;;5.24;100.00
4415;BME280;2220;42.670;23.398;2023-02-04T07:41:19;93504.69;;;5.41;100.00
4415;BME280;2220;42.670;23.398;2023-02-04T07:43:56;93531.22;;;5.26;100.00
4415;BME280;2220;42.670;23.398;2023-02-04T07:46:21;93539.03;;;5.41;100.00
4415;BME280;2220;42.670;23.398;2023-02-04T07:48:46;93542.34;;;5.37;100.00
4415;BME280;2220;42.670;23.398;2023-02-04T07:51:12;93558.19;;;5.50;100.00
4415;BME280;2220;42.670;23.398;2023-02-04T07:53:37;93572.44;;;5.63;100.00
4415;BME280;2220;42.670;23.398;2023-02-04T07:56:21;93586.06;;;5.48;100.00
4415;BME280;2220;42.670;23.398;2023-02-04T07:58:46;93606.91;;;5.37;100.00
4415;BME280;2220;42.670;23.398;2023-02-04T08:01:12;93581.81;;;5.27;100.00
4415;BME280;2220;42.670;23.398;2023-02-04T08:03:38;93603.72;;;5.19;100.00
4415;BME280;2220;42.670;23.398;2023-02-04T08:06:03;93614.25;;;5.08;100.00
4415;BME280;2220;42.670;23.398;2023-02-04T08:08:28;93600.78;;;5.48;100.00
4415;BME280;2220;42.670;23.398;2023-02-04T08:10:57;93617.88;;;5.59;100.00
4415;BME280;2220;42.670;23.398;2023-02-04T08:13:22;93629.34;;;5.78;100.00
4415;BME280;2220;42.670;23.398;2023-02-04T08:15:47;93638.34;;;5.28;100.00
4415;BME280;2220;42.670;23.398;2023-02-04T08:18:13;93653.59;;;5.25;100.00
4415;BME280;2220;42.670;23.398;2023-02-04T08:20:41;93645.16;;;5.45;100.00
4415;BME280;2220;42.670;23.398;2023-02-04T08:23:12;93677.28;;;5.54;100.00
4415;BME280;2220;42.670;23.398;2023-02-04T08:25:40;93648.31;;;5.47;100.00
4415;BME280;2220;42.670;23.398;2023-02-04T08:28:05;93661.44;;;5.45;100.00
4415;BME280;2220;42.670;23.398;2023-02-04T08:30:31;93686.44;;;5.34;100.00
4415;BME280;2220;42.670;23.398;2023-02-04T08:32:59;93651.06;;;5.35;100.00
4415;BME280;2220;42.670;23.398;2023-02-04T08:35:25;93656.75;;;5.37;100.00
4415;BME280;2220;42.670;23.398;2023-02-04T08:41:17;93631.31;;;5.61;100.00
4415;BME280;2220;42.670;23.398;2023-02-04T08:43:42;93645.63;;;5.31;100.00
4415;BME280;2220;42.670;23.398;2023-02-04T08:46:08;93629.63;;;5.29;100.00
4415;BME280;2220;42.670;23.398;2023-02-04T08:48:36;93598.84;;;5.23;100.00
4415;BME280;2220;42.670;23.398;2023-02-04T08:51:10;93591.31;;;5.16;100.00
4415;BME280;2220;42.670;23.398;2023-02-04T08:53:38;93587.03;;;4.90;100.00
4415;BME280;2220;42.670;23.398;2023-02-04T08:56:05;93602.28;;;4.96;100.00
4415;BME280;2220;42.670;23.398;2023-02-04T08:58:45;93574.81;;;4.80;100.00
4415;BME280;2220;42.670;23.398;2023-02-04T09:01:13;93579.84;;;4.60;100.00
4415;BME280;2220;42.670;23.398;2023-02-04T09:03:38;93563.19;;;4.77;100.00
4415;BME280;2220;42.670;23.398;2023-02-04T09:06:05;93546.28;;;4.92;100.00
4415;BME280;2220;42.670;23.398;2023-02-04T09:08:31;93537.34;;;4.72;100.00
4415;BME280;2220;42.670;23.398;2023-02-04T09:10:56;93530.13;;;4.69;100.00
4415;BME280;2220;42.670;23.398;2023-02-04T09:13:22;93509.97;;;4.61;100.00
4415;BME280;2220;42.670;23.398;2023-02-04T09:15:47;93496.94;;;4.83;100.00
4415;BME280;2220;42.670;23.398;2023-02-04T09:18:15;93503.69;;;4.94;100.00
4415;BME280;2220;42.670;23.398;2023-02-04T09:20:43;93489.47;;;4.82;100.00
4415;BME280;2220;42.670;23.398;2023-02-04T09:23:10;93480.00;;;5.02;100.00
4415;BME280;2220;42.670;23.398;2023-02-04T09:25:40;93496.00;;;5.04;100.00
4415;BME280;2220;42.670;23.398;2023-02-04T09:28:07;93503.81;;;5.15;100.00
4415;BME280;2220;42.670;23.398;2023-02-04T09:30:37;93509.56;;;5.37;100.00
4415;BME280;2220;42.670;23.398;2023-02-04T09:33:03;93521.22;;;5.40;100.00
4415;BME280;2220;42.670;23.398;2023-02-04T09:35:28;93552.19;;;5.40;100.00
4415;BME280;2220;42.670;23.398;2023-02-04T09:37:54;93575.44;;;5.40;100.00
4415;BME280;2220;42.670;23.398;2023-02-04T09:40:20;93583.91;;;5.30;100.00
4415;BME280;2220;42.670;23.398;2023-02-04T09:42:50;93584.75;;;5.41;100.00
4415;BME280;2220;42.670;23.398;2023-02-04T09:45:22;93583.75;;;5.04;100.00
4415;BME280;2220;42.670;23.398;2023-02-04T09:47:49;93549.06;;;4.85;100.00
4415;BME280;2220;42.670;23.398;2023-02-04T09:50:17;93503.09;;;4.77;100.00
4415;BME280;2220;42.670;23.398;2023-02-04T09:52:45;93460.53;;;4.74;100.00
4415;BME280;2220;42.670;23.398;2023-02-04T09:55:14;93414.72;;;4.44;100.00
4415;BME280;2220;42.670;23.398;2023-02-04T09:57:40;93416.31;;;4.56;100.00
4415;BME280;2220;42.670;23.398;2023-02-04T10:00:20;93404.19;;;4.51;100.00
4415;BME280;2220;42.670;23.398;2023-02-04T10:02:45;93390.59;;;4.18;100.00
4415;BME280;2220;42.670;23.398;2023-02-04T10:05:16;93356.53;;;4.16;100.00
4415;BME280;2220;42.670;23.398;2023-02-04T10:07:43;93347.84;;;4.28;100.00
4415;BME280;2220;42.670;23.398;2023-02-04T10:10:16;93328.56;;;4.35;100.00
4415;BME280;2220;42.670;23.398;2023-02-04T10:12:42;93338.66;;;4.47;100.00
4415;BME280;2220;42.670;23.398;2023-02-04T10:15:15;93343.31;;;4.50;100.00
4415;BME280;2220;42.670;23.398;2023-02-04T10:17:44;93318.22;;;4.30;100.00
4415;BME280;2220;42.670;23.398;2023-02-04T10:20:17;93332.94;;;4.35;100.00
4415;BME280;2220;42.670;23.398;2023-02-04T10:22:44;93313.97;;;4.61;100.00
4415;BME280;2220;42.670;23.398;2023-02-04T10:25:14;93328.94;;;4.69;100.00
4415;BME280;2220;42.670;23.398;2023-02-04T10:30:24;93313.72;;;4.68;100.00
4415;BME280;2220;42.670;23.398;2023-02-04T10:32:50;93332.28;;;4.60;100.00
4415;BME280;2220;42.670;23.398;2023-02-04T10:35:18;93317.63;;;4.81;100.00
4415;BME280;2220;42.670;23.398;2023-02-04T10:37:47;93318.66;;;4.74;100.00
4415;BME280;2220;42.670;23.398;2023-02-04T10:42:51;93313.00;;;4.88;100.00
4415;BME280;2220;42.670;23.398;2023-02-04T10:45:28;93311.19;;;4.78;100.00
4415;BME280;2220;42.670;23.398;2023-02-04T10:47:55;93319.91;;;4.67;100.00
4415;BME280;2220;42.670;23.398;2023-02-04T10:50:23;93305.22;;;4.72;100.00
4415;BME280;2220;42.670;23.398;2023-02-04T10:52:57;93305.19;;;4.62;100.00
4415;BME280;2220;42.670;23.398;2023-02-04T10:55:46;93320.06;;;4.40;100.00
4415;BME280;2220;42.670;23.398;2023-02-04T10:58:16;93320.81;;;4.35;100.00
4415;BME280;2220;42.670;23.398;2023-02-04T11:00:45;93320.53;;;4.32;100.00
4415;BME280;2220;42.670;23.398;2023-02-04T11:03:16;93318.53;;;4.49;100.00
4415;BME280;2220;42.670;23.398;2023-02-04T11:05:43;93342.03;;;4.53;100.00
4415;BME280;2220;42.670;23.398;2023-02-04T11:08:33;93327.84;;;4.55;100.00
4415;BME280;2220;42.670;23.398;2023-02-04T11:11:00;93315.44;;;4.42;100.00
4415;BME280;2220;42.670;23.398;2023-02-04T11:13:39;93305.72;;;4.64;100.00
4415;BME280;2220;42.670;23.398;2023-02-04T11:21:44;93344.41;;;4.69;100.00
4415;BME280;2220;42.670;23.398;2023-02-04T11:26:37;93292.31;;;4.72;100.00
4415;BME280;2220;42.670;23.398;2023-02-04T11:29:08;93309.66;;;4.82;100.00
4415;BME280;2220;42.670;23.398;2023-02-04T11:37:02;93307.34;;;4.96;100.00
4415;BME280;2220;42.670;23.398;2023-02-04T11:39:45;93338.06;;;4.97;100.00
4415;BME280;2220;42.670;23.398;2023-02-04T11:42:31;93301.09;;;4.71;100.00
4415;BME280;2220;42.670;23.398;2023-02-04T11:45:15;93320.91;;;4.56;100.00
4415;BME280;2220;42.670;23.398;2023-02-04T11:47:42;93322.78;;;4.75;100.00
4415;BME280;2220;42.670;23.398;2023-02-04T11:50:19;93315.53;;;4.67;100.00
4415;BME280;2220;42.670;23.398;2023-02-04T11:52:45;93316.81;;;4.70;100.00
4415;BME280;2220;42.670;23.398;2023-02-04T11:55:11;93314.22;;;4.65;100.00
4415;BME280;2220;42.670;23.398;2023-02-04T11:57:39;93314.50;;;4.68;100.00
4415;BME280;2220;42.670;23.398;2023-02-04T12:00:17;93317.06;;;4.58;100.00
4415;BME280;2220;42.670;23.398;2023-02-04T12:02:48;93314.75;;;4.62;100.00
4415;BME280;2220;42.670;23.398;2023-02-04T12:05:16;93295.59;;;4.47;100.00
4415;BME280;2220;42.670;23.398;2023-02-04T12:07:43;93317.06;;;4.63;100.00
4415;BME280;2220;42.670;23.398;2023-02-04T12:12:54;93304.19;;;4.68;100.00
4415;BME280;2220;42.670;23.398;2023-02-04T12:15:31;93324.50;;;4.55;100.00
4415;BME280;2220;42.670;23.398;2023-02-04T12:18:07;93296.13;;;4.44;100.00
4415;BME280;2220;42.670;23.398;2023-02-04T12:23:34;93297.84;;;4.29;100.00
4415;BME280;2220;42.670;23.398;2023-02-04T12:26:17;93328.81;;;4.34;100.00
4415;BME280;2220;42.670;23.398;2023-02-04T12:28:45;93329.81;;;4.33;100.00
4415;BME280;2220;42.670;23.398;2023-02-04T12:31:11;93343.50;;;4.38;100.00
4415;BME280;2220;42.670;23.398;2023-02-04T12:33:36;93327.50;;;4.31;100.00
4415;BME280;2220;42.670;23.398;2023-02-04T12:36:02;93346.59;;;4.35;100.00
4415;BME280;2220;42.670;23.398;2023-02-04T12:38:27;93350.38;;;4.17;100.00
4415;BME280;2220;42.670;23.398;2023-02-04T12:40:56;93355.44;;;4.07;100.00
4415;BME280;2220;42.670;23.398;2023-02-04T12:43:29;93367.94;;;4.26;100.00
4415;BME280;2220;42.670;23.398;2023-02-04T12:45:55;93375.47;;;4.37;100.00
4415;BME280;2220;42.670;23.398;2023-02-04T12:48:23;93389.19;;;4.48;100.00
4415;BME280;2220;42.670;23.398;2023-02-04T12:50:50;93389.44;;;4.41;100.00
4415;BME280;2220;42.670;23.398;2023-02-04T12:53:21;93394.81;;;4.40;100.00
4415;BME280;2220;42.670;23.398;2023-02-04T12:55:58;93368.00;;;4.41;100.00
4415;BME280;2220;42.670;23.398;2023-02-04T12:58:23;93366.03;;;4.53;100.00
4415;BME280;2220;42.670;23.398;2023-02-04T13:01:01;93378.25;;;4.78;100.00
4415;BME280;2220;42.670;23.398;2023-02-04T13:03:26;93343.19;;;4.82;100.00
4415;BME280;2220;42.670;23.398;2023-02-04T13:05:52;93310.88;;;4.64;100.00
4415;BME280;2220;42.670;23.398;2023-02-04T13:08:17;93305.75;;;4.80;100.00
4415;BME280;2220;42.670;23.398;2023-02-04T13:10:43;93284.59;;;4.72;100.00
4415;BME280;2220;42.670;23.398;2023-02-04T13:13:11;93305.28;;;4.93;100.00
4415;BME280;2220;42.670;23.398;2023-02-04T13:18:49;93268.09;;;4.78;100.00
4415;BME280;2220;42.670;23.398;2023-02-04T13:21:15;93290.81;;;4.76;100.00
4415;BME280;2220;42.670;23.398;2023-02-04T13:23:52;93277.91;;;4.76;100.00
4415;BME280;2220;42.670;23.398;2023-02-04T13:26:43;93308.84;;;4.76;100.00
4415;BME280;2220;42.670;23.398;2023-02-04T13:29:08;93276.16;;;4.97;100.00
4415;BME280;2220;42.670;23.398;2023-02-04T13:31:34;93301.13;;;4.82;100.00
4415;BME280;2220;42.670;23.398;2023-02-04T13:34:19;93276.56;;;4.64;100.00
4415;BME280;2220;42.670;23.398;2023-02-04T13:36:45;93300.78;;;4.53;100.00
4415;BME280;2220;42.670;23.398;2023-02-04T13:39:10;93280.41;;;4.56;100.00
4415;BME280;2220;42.670;23.398;2023-02-04T13:41:36;93303.13;;;4.59;100.00